Loves Park, IL

2:29 AM CST on December 04, 2016 (GMT -0600)
Killdeer Place | | Change Station
Active Advisory: Winter Weather Advisory

Elev 849 ft 42.31 °N, 89.01 °W | Updated 1 minute ago

Overcast
Overcast
32.5 °F
Feels Like 32 °F
N
0.6
Wind Variable Wind from North
Gusts 1.2 mph

Today
High -- | Low -- °F
--% Chance of Precip.
Yesterday
High -- | Low -- °F
Precip. -- in
Pressure 30.26 in
Visibility 10.0 miles
Clouds Mostly Cloudy 9000 ft
Overcast 10000 ft
Windchill 32 °F
Dew Point 32 °F
Humidity 100%
Rainfall 0.00 in
Snow Depth Not available.
7:09 AM 4:23 PM
Waxing Crescent, 21% visible
METAR KRFD 040754Z 17005KT 10SM BKN090 OVC100 01/M03 A3024 RMK AO2 SLP246 T00061028
Pressure 30.26 in
Visibility 10.0 miles
Clouds Mostly Cloudy 9000 ft
Overcast 10000 ft
Windchill 32 °F
Dew Point 32 °F
Humidity 100%
Rainfall 0.00 in
Snow Depth Not available.
7:09 AM 4:23 PM
Waxing Crescent, 21% visible
METAR KRFD 040754Z 17005KT 10SM BKN090 OVC100 01/M03 A3024 RMK AO2 SLP246 T00061028

10-Day Weather Forecast

Almanac

Astronomy

Dec. 04, 2016 Rise Set
Actual Time
Civil Twilight
Nautical Twilight
Astronomical Twilight
Moon
Length of Visible Light
Length of Day
Tomorrow will be .
, % of the Moon is Illuminated

Today's Extremes

State Highs State Lows

Community

WunderPhotos

Upload Photos

1,955,587 photos uploaded!

WunderBlog® & News

Nearby

Air Quality

  Air Quality AQ Index Pollutant
Not available.

Snow Depth

Station Depth Elevation

Earthquake Activity

City Distance Mag. Time & Date
Minimum magnitude displayed is 2.5.

Coastal Water Temperatures

Place Temperature

Stations

Nearby Weather Stations

Station Location Temp. Windchill Dew Point Humidity Wind Precip. Elev Updated Type
                   

Watches & Warnings

Winter Weather Advisory
Issued: 8:32 PM CST Dec. 3, 2016 – National Weather Service

... Winter Weather Advisory remains in effect from 7 am to 6 PM
CST Sunday...

* timing... light to moderate snow will begin from west to east
across northern Illinois during Sunday morning and continue
until sunset or slightly after.

* Snow accumulations... 2 to 4 inches of wet snow with the higher
amounts generally northwest of a line from Chicago to
Morris... to Peru.

* Main impact... slippery conditions are expected on untreated
surfaces creating hazardous travel.

* Other impacts... visibility may fall to around one half mile at
times causing an additional travel hazard.

* Note... impacts may be mitigated by mild Road temperatures on
heavily traveled roads... such as in the city of Chicago and
immediate suburbs.

Precautionary/preparedness actions...

A Winter Weather Advisory for snow means that periods of snow
will cause primarily travel difficulties. Be prepared for snow
covered roads and limited visibilities... and use caution while
driving.



Mtf